Time;durP1;ratioP1;P1;durP2;ratioP2;P2;SDS_P1;SDS_P2;PMS_P1;PMS_P2;Temp;Humidity;BMP_temperature;BMP_pressure;BME280_temperature;BME280_humidity;BME280_pressure;Samples;Min_cycle;Max_cycle;Signal;HPM_P1;HPM_P2
2022/10/17 00:02:22;;;;;;;18.95;6.72;;;12.30;99.90;;;;;;5095866;28;20097;-57
2022/10/17 00:04:48;;;;;;;15.27;8.05;;;12.30;99.90;;;;;;5095800;28;20362;-56
2022/10/17 00:07:13;;;;;;;17.75;8.20;;;12.30;99.90;;;;;;5095930;28;20122;-57
2022/10/17 00:09:42;;;;;;;15.43;7.43;;;12.30;99.90;;;;;;5094550;28;20105;-56
2022/10/17 00:12:08;;;;;;;15.35;7.55;;;12.30;99.90;;;;;;5095666;28;20040;-57
2022/10/17 00:14:34;;;;;;;15.90;6.80;;;12.20;99.90;;;;;;5094356;28;20127;-57
2022/10/17 00:17:00;;;;;;;17.17;7.35;;;12.30;99.90;;;;;;5095521;28;20043;-55
2022/10/17 00:19:25;;;;;;;17.25;7.60;;;12.30;99.90;;;;;;5095496;28;20040;-55
2022/10/17 00:21:51;;;;;;;16.33;6.80;;;12.20;99.90;;;;;;5095497;28;20115;-57
2022/10/17 00:24:17;;;;;;;14.18;6.55;;;12.20;99.90;;;;;;5095403;28;20075;-57
2022/10/17 00:26:42;;;;;;;13.00;5.93;;;12.20;99.90;;;;;;5095488;28;20040;-56
2022/10/17 00:29:08;;;;;;;14.10;6.15;;;12.30;99.90;;;;;;5095714;28;20050;-56
2022/10/17 00:31:34;;;;;;;17.67;8.57;;;12.20;99.90;;;;;;5095447;28;20057;-57
2022/10/17 00:34:00;;;;;;;18.02;8.60;;;12.30;99.90;;;;;;5095501;28;20048;-57
2022/10/17 00:36:26;;;;;;;16.17;7.22;;;12.20;99.90;;;;;;5095448;28;20036;-57
2022/10/17 00:38:55;;;;;;;15.95;7.70;;;12.30;99.90;;;;;;5094005;28;20429;-58
2022/10/17 00:41:24;;;;;;;14.40;5.97;;;12.30;99.90;;;;;;5095239;28;20048;-56
2022/10/17 00:43:58;;;;;;;16.63;6.75;;;12.40;99.90;;;;;;5095183;28;20047;-56
2022/10/17 00:46:28;;;;;;;14.32;6.53;;;12.20;99.90;;;;;;5095359;28;20044;-56
2022/10/17 00:48:55;;;;;;;15.20;6.30;;;12.30;99.90;;;;;;5095234;28;20101;-55
2022/10/17 00:51:36;;;;;;;12.50;5.85;;;12.30;99.90;;;;;;5093904;28;20396;-56
2022/10/17 00:54:03;;;;;;;12.60;5.60;;;12.30;99.90;;;;;;5094825;28;20388;-56
2022/10/17 00:56:29;;;;;;;14.45;6.28;;;12.40;99.90;;;;;;5094527;28;20036;-56
2022/10/17 00:58:55;;;;;;;15.15;6.07;;;12.20;99.90;;;;;;5095249;28;20028;-57
2022/10/17 01:01:21;;;;;;;16.67;5.85;;;12.30;99.90;;;;;;5095027;28;20086;-56
2022/10/17 01:03:47;;;;;;;13.85;5.97;;;12.40;99.90;;;;;;5095024;28;20079;-56
2022/10/17 01:06:12;;;;;;;14.15;6.40;;;12.30;99.90;;;;;;5094808;28;20137;-57
2022/10/17 01:08:38;;;;;;;18.70;7.13;;;12.40;99.90;;;;;;5094666;28;20036;-56
2022/10/17 01:11:31;;;;;;;14.30;7.60;;;12.40;99.90;;;;;;5094437;28;20107;-56
2022/10/17 01:14:04;;;;;;;16.25;8.25;;;12.50;99.90;;;;;;5094805;28;20032;-56
2022/10/17 01:16:47;;;;;;;18.17;9.88;;;12.50;99.90;;;;;;5094780;28;20106;-56
2022/10/17 01:19:34;;;;;;;16.45;9.70;;;12.50;99.90;;;;;;5093372;28;20123;-56
2022/10/17 01:22:41;;;;;;;18.23;10.15;;;12.50;99.90;;;;;;5094415;28;20039;-56
2022/10/17 01:25:25;;;;;;;15.82;8.60;;;12.50;99.90;;;;;;5051682;28;20037;-56
2022/10/17 01:28:12;;;;;;;17.08;7.75;;;12.60;99.90;;;;;;5090850;28;20049;-56
2022/10/17 01:31:02;;;;;;;13.77;7.40;;;12.40;99.90;;;;;;5094258;28;20089;-56
2022/10/17 01:33:42;;;;;;;15.43;6.95;;;12.40;99.90;;;;;;5094275;28;20380;-56
2022/10/17 01:36:35;;;;;;;12.23;5.63;;;12.60;99.90;;;;;;5094293;28;20109;-56
2022/10/17 01:39:12;;;;;;;13.80;6.03;;;12.50;99.90;;;;;;5088637;28;20040;-56
2022/10/17 01:41:58;;;;;;;15.27;5.57;;;12.50;99.90;;;;;;5073690;28;20036;-56
2022/10/17 01:44:29;;;;;;;12.80;5.70;;;12.50;99.90;;;;;;5072556;28;20048;-56
2022/10/17 01:47:03;;;;;;;13.07;5.47;;;12.50;99.90;;;;;;5073610;28;20049;-56
2022/10/17 01:49:31;;;;;;;14.20;5.80;;;12.70;99.90;;;;;;5073732;28;20044;-56
2022/10/17 01:52:11;;;;;;;12.80;5.70;;;12.70;99.90;;;;;;5073621;28;20105;-56
2022/10/17 01:55:00;;;;;;;13.27;7.00;;;12.80;99.90;;;;;;5073584;28;20085;-56
2022/10/17 01:57:38;;;;;;;12.75;6.60;;;12.60;99.90;;;;;;5073638;28;20064;-57
2022/10/17 02:00:10;;;;;;;15.48;7.65;;;12.70;99.90;;;;;;5086978;28;20040;-57
2022/10/17 02:02:36;;;;;;;14.93;6.78;;;12.60;99.90;;;;;;5093890;28;20047;-57
2022/10/17 02:05:03;;;;;;;13.05;6.40;;;12.70;99.90;;;;;;5093599;28;20036;-57
2022/10/17 02:07:29;;;;;;;12.65;6.45;;;12.80;99.90;;;;;;5093403;28;20072;-57
2022/10/17 02:09:54;;;;;;;11.73;6.50;;;12.70;99.90;;;;;;5092343;28;20141;-57
2022/10/17 02:12:44;;;;;;;12.57;6.88;;;12.70;99.90;;;;;;5093496;28;20408;-57
2022/10/17 02:15:24;;;;;;;15.02;7.78;;;12.60;99.90;;;;;;5093416;28;20048;-57
2022/10/17 02:18:18;;;;;;;15.18;7.75;;;12.80;99.90;;;;;;5093303;28;20067;-57
2022/10/17 02:21:24;;;;;;;12.00;6.07;;;12.80;99.90;;;;;;5093370;28;20071;-56
2022/10/17 02:23:58;;;;;;;10.73;5.88;;;12.60;99.90;;;;;;5092724;28;20500;-57
2022/10/17 02:26:35;;;;;;;10.82;5.65;;;12.60;99.90;;;;;;5093282;28;20122;-56
2022/10/17 02:29:18;;;;;;;9.77;5.82;;;12.60;99.90;;;;;;5092170;28;20044;-56
2022/10/17 02:31:53;;;;;;;10.63;5.63;;;12.80;99.90;;;;;;5093125;28;20044;-56
2022/10/17 02:34:24;;;;;;;10.40;6.10;;;12.60;99.90;;;;;;5093306;28;20028;-56
2022/10/17 02:36:54;;;;;;;12.07;7.22;;;12.60;99.90;;;;;;5093099;28;20032;-56
2022/10/17 02:39:22;;;;;;;13.18;7.20;;;12.80;99.90;;;;;;5085902;28;20036;-56
2022/10/17 02:41:51;;;;;;;11.38;6.75;;;12.60;99.90;;;;;;5072508;28;20052;-56
2022/10/17 02:44:17;;;;;;;10.57;7.03;;;12.60;99.90;;;;;;5072559;28;20400;-57
2022/10/17 02:46:54;;;;;;;13.75;6.63;;;12.50;99.90;;;;;;5072625;28;20044;-56
2022/10/17 02:49:28;;;;;;;12.25;6.78;;;12.70;99.90;;;;;;5072405;28;20507;-56
2022/10/17 02:52:26;;;;;;;11.38;6.97;;;12.70;99.90;;;;;;5071298;28;20044;-56
2022/10/17 02:55:15;;;;;;;9.85;6.57;;;12.80;99.90;;;;;;5072399;28;20119;-57
2022/10/17 02:57:46;;;;;;;13.02;6.82;;;12.50;99.90;;;;;;5072325;28;20036;-56
2022/10/17 03:00:14;;;;;;;12.85;6.93;;;12.60;99.90;;;;;;5087157;28;20050;-57
2022/10/17 03:02:43;;;;;;;16.60;6.85;;;12.60;99.90;;;;;;5091286;28;20058;-57
2022/10/17 03:05:11;;;;;;;16.95;8.10;;;12.50;99.90;;;;;;5092505;28;20095;-57
2022/10/17 03:07:36;;;;;;;12.05;7.80;;;12.60;99.90;;;;;;5092495;28;20028;-57
2022/10/17 03:10:03;;;;;;;12.30;8.85;;;12.80;99.90;;;;;;5092446;28;20047;-56
2022/10/17 03:12:28;;;;;;;12.82;7.13;;;12.70;99.90;;;;;;5092574;28;20461;-57
2022/10/17 03:14:54;;;;;;;14.30;7.75;;;12.70;99.90;;;;;;5092574;28;20035;-57
2022/10/17 03:17:20;;;;;;;12.38;7.78;;;12.70;99.90;;;;;;5092271;28;20036;-57
2022/10/17 03:19:45;;;;;;;15.25;8.38;;;12.50;99.90;;;;;;5092210;28;20109;-56
2022/10/17 03:22:11;;;;;;;14.40;8.15;;;12.80;99.90;;;;;;5092314;28;20050;-57
2022/10/17 03:24:37;;;;;;;16.38;9.45;;;12.50;99.90;;;;;;5092220;28;20471;-57
2022/10/17 03:27:03;;;;;;;14.80;8.70;;;12.80;99.90;;;;;;5092431;28;20120;-56
2022/10/17 03:29:28;;;;;;;16.35;8.48;;;12.60;99.90;;;;;;5092296;28;20047;-56
2022/10/17 03:31:54;;;;;;;14.20;9.20;;;12.80;99.90;;;;;;5092341;28;20040;-57
2022/10/17 03:34:20;;;;;;;14.98;9.90;;;12.60;99.90;;;;;;5090841;28;20041;-58
2022/10/17 03:36:45;;;;;;;15.82;9.80;;;12.80;99.90;;;;;;5092128;28;20042;-56
2022/10/17 03:39:11;;;;;;;13.30;9.60;;;12.80;99.90;;;;;;5091966;28;20527;-56
2022/10/17 03:41:37;;;;;;;13.68;9.32;;;12.50;99.90;;;;;;5092007;28;20134;-54
2022/10/17 03:44:03;;;;;;;15.68;9.18;;;12.50;99.90;;;;;;5092269;28;20051;-56
2022/10/17 03:46:28;;;;;;;15.25;9.48;;;12.80;99.90;;;;;;5091080;28;20040;-56
2022/10/17 03:48:54;;;;;;;13.65;9.18;;;12.40;99.90;;;;;;5092048;28;20036;-57
2022/10/17 03:51:20;;;;;;;13.13;9.10;;;12.60;99.90;;;;;;5092187;28;20051;-56
2022/10/17 03:53:45;;;;;;;13.52;9.55;;;12.70;99.90;;;;;;5091927;28;20032;-57
2022/10/17 03:56:15;;;;;;;16.08;10.02;;;12.50;99.90;;;;;;5091948;28;20120;-56
2022/10/17 03:58:42;;;;;;;14.63;9.35;;;12.80;99.90;;;;;;5092210;28;20190;-57
2022/10/17 04:01:10;;;;;;;15.98;9.05;;;12.50;99.90;;;;;;5092259;28;20509;-57
2022/10/17 04:03:36;;;;;;;14.30;9.93;;;12.70;99.90;;;;;;5090696;28;20043;-57
2022/10/17 04:06:03;;;;;;;13.63;9.50;;;12.70;99.90;;;;;;5092187;28;20048;-57
2022/10/17 04:08:30;;;;;;;13.80;9.38;;;12.60;99.90;;;;;;5091985;28;20397;-57
2022/10/17 04:11:00;;;;;;;13.35;9.05;;;12.70;99.90;;;;;;5091592;28;20531;-56
2022/10/17 04:13:27;;;;;;;13.63;10.00;;;12.60;99.90;;;;;;5091913;28;20438;-56
2022/10/17 04:16:03;;;;;;;14.27;9.65;;;12.70;99.90;;;;;;5091977;28;20047;-57
2022/10/17 04:18:29;;;;;;;14.82;9.55;;;12.40;99.90;;;;;;5091819;28;20411;-56
2022/10/17 04:20:55;;;;;;;17.58;10.43;;;12.30;99.90;;;;;;5091696;28;20044;-56
2022/10/17 04:23:21;;;;;;;13.93;9.68;;;12.30;99.90;;;;;;5091793;28;20047;-56
2022/10/17 04:25:48;;;;;;;15.30;10.13;;;12.30;99.90;;;;;;5091994;28;20038;-56
2022/10/17 04:28:13;;;;;;;13.38;10.27;;;12.40;99.90;;;;;;5091979;28;20044;-56
2022/10/17 04:30:39;;;;;;;16.40;10.73;;;12.60;99.90;;;;;;5093945;28;20047;-56
2022/10/17 04:33:05;;;;;;;14.82;10.43;;;12.70;99.90;;;;;;5095279;28;20040;-56
2022/10/17 04:35:31;;;;;;;15.95;11.07;;;12.60;99.90;;;;;;5095513;28;20046;-56
2022/10/17 04:37:56;;;;;;;19.85;12.43;;;12.50;99.90;;;;;;5095412;28;20433;-56
2022/10/17 04:40:22;;;;;;;16.25;11.98;;;12.40;99.90;;;;;;5079296;28;20033;-56
2022/10/17 04:42:48;;;;;;;17.13;11.70;;;12.50;99.90;;;;;;5057009;28;20401;-57
2022/10/17 04:45:13;;;;;;;17.42;12.18;;;12.50;99.90;;;;;;5073660;28;20181;-56
2022/10/17 04:47:39;;;;;;;20.15;11.93;;;12.70;99.90;;;;;;5075070;28;20088;-56
2022/10/17 04:50:05;;;;;;;14.65;11.27;;;12.80;99.90;;;;;;5074721;28;20496;-56
2022/10/17 04:52:31;;;;;;;16.75;12.20;;;12.80;99.90;;;;;;5074900;28;20055;-57
2022/10/17 04:54:57;;;;;;;16.15;12.05;;;12.40;99.90;;;;;;5074839;28;20397;-56
2022/10/17 04:57:23;;;;;;;16.38;12.50;;;13.00;99.90;;;;;;5074865;28;20397;-56
2022/10/17 04:59:49;;;;;;;19.20;12.10;;;12.60;99.90;;;;;;5086128;28;20044;-56
2022/10/17 05:02:15;;;;;;;17.13;12.02;;;12.80;99.90;;;;;;5095050;28;20039;-55
2022/10/17 05:04:41;;;;;;;16.63;12.55;;;12.50;99.90;;;;;;5094827;28;20408;-56
2022/10/17 05:07:07;;;;;;;19.20;13.50;;;12.50;99.90;;;;;;5094592;28;20670;-56
2022/10/17 05:09:32;;;;;;;18.77;13.63;;;12.70;99.90;;;;;;5076740;28;20130;-56
2022/10/17 05:11:58;;;;;;;17.75;13.90;;;12.50;99.90;;;;;;5094582;28;20431;-56
2022/10/17 05:14:24;;;;;;;20.27;14.65;;;13.00;99.90;;;;;;5094867;28;20047;-56
2022/10/17 05:16:49;;;;;;;21.55;14.05;;;12.90;99.90;;;;;;5094587;28;20373;-56
2022/10/17 05:19:17;;;;;;;20.95;14.27;;;12.70;99.90;;;;;;5094293;28;20484;-56
2022/10/17 05:21:43;;;;;;;23.80;15.43;;;12.70;99.90;;;;;;5094159;28;20048;-57
2022/10/17 05:24:12;;;;;;;22.60;14.75;;;13.00;99.90;;;;;;5094390;28;20048;-58
2022/10/17 05:26:38;;;;;;;22.85;15.10;;;13.20;99.90;;;;;;5094336;28;20044;-56
2022/10/17 05:29:05;;;;;;;22.42;15.55;;;13.20;99.90;;;;;;5094528;28;20040;-56
2022/10/17 05:31:31;;;;;;;21.05;15.40;;;12.60;99.90;;;;;;5094042;28;20541;-56
2022/10/17 05:34:01;;;;;;;23.00;17.08;;;12.70;99.90;;;;;;5093435;28;20043;-62
2022/10/17 05:36:27;;;;;;;21.90;16.13;;;13.20;99.90;;;;;;5092905;28;20032;-60
2022/10/17 05:38:53;;;;;;;23.13;15.90;;;13.20;99.90;;;;;;5093080;28;20032;-58
2022/10/17 05:41:19;;;;;;;24.85;16.98;;;12.70;99.90;;;;;;5092936;28;20051;-56
2022/10/17 05:43:45;;;;;;;27.42;17.38;;;13.20;99.90;;;;;;5093158;28;20082;-56
2022/10/17 05:46:11;;;;;;;23.55;16.70;;;13.30;99.90;;;;;;5093207;28;20079;-58
2022/10/17 05:48:37;;;;;;;23.35;17.05;;;12.70;99.90;;;;;;5093047;28;20150;-56
2022/10/17 05:51:06;;;;;;;23.80;17.58;;;12.90;99.90;;;;;;5092857;28;20044;-58
2022/10/17 05:53:34;;;;;;;24.48;16.67;;;13.40;99.90;;;;;;5092918;28;20075;-57
2022/10/17 05:56:02;;;;;;;25.35;16.67;;;12.70;99.90;;;;;;5093230;28;20100;-57
2022/10/17 05:58:28;;;;;;;24.92;17.25;;;13.30;99.90;;;;;;5092849;28;20116;-57
2022/10/17 06:01:02;;;;;;;24.85;17.08;;;12.70;99.90;;;;;;5092849;28;20122;-57
2022/10/17 06:03:28;;;;;;;24.45;17.88;;;13.10;99.90;;;;;;5092818;28;20423;-57
2022/10/17 06:05:54;;;;;;;26.85;18.52;;;13.00;99.90;;;;;;5092920;28;20109;-56
2022/10/17 06:08:20;;;;;;;22.60;15.02;;;13.10;99.90;;;;;;5092378;28;20044;-55
2022/10/17 06:10:48;;;;;;;22.08;14.32;;;13.00;99.90;;;;;;5092617;28;20498;-57
2022/10/17 06:13:18;;;;;;;22.83;15.23;;;12.90;99.90;;;;;;5092693;28;20054;-58
2022/10/17 06:15:44;;;;;;;23.38;15.40;;;13.40;99.90;;;;;;5092454;28;20032;-57
2022/10/17 06:18:10;;;;;;;21.95;15.13;;;13.60;99.90;;;;;;5092679;28;20040;-57
2022/10/17 06:20:36;;;;;;;26.95;16.30;;;12.90;99.90;;;;;;5092529;28;20036;-57
2022/10/17 06:23:02;;;;;;;26.00;15.63;;;12.90;99.90;;;;;;5092585;28;20506;-57
2022/10/17 06:25:30;;;;;;;24.40;15.82;;;13.30;99.90;;;;;;5092300;28;20408;-56
2022/10/17 06:27:56;;;;;;;26.35;16.10;;;13.80;99.90;;;;;;5092457;28;20044;-56
2022/10/17 06:30:21;;;;;;;25.70;16.30;;;13.10;99.90;;;;;;5092103;28;20368;-56
2022/10/17 06:32:47;;;;;;;25.42;15.70;;;13.10;99.90;;;;;;5092375;28;20039;-57
2022/10/17 06:35:13;;;;;;;23.55;15.98;;;13.90;99.90;;;;;;5091198;28;20117;-57
2022/10/17 06:37:39;;;;;;;23.10;15.57;;;13.80;99.90;;;;;;5092188;28;20032;-56
2022/10/17 06:40:07;;;;;;;27.92;16.08;;;13.10;99.90;;;;;;5092067;28;20047;-57
2022/10/17 06:42:33;;;;;;;22.05;14.85;;;13.10;99.90;;;;;;5092159;28;20434;-57
2022/10/17 06:44:59;;;;;;;25.10;16.13;;;13.70;99.90;;;;;;5092244;28;20054;-57
2022/10/17 06:47:25;;;;;;;23.85;15.75;;;13.50;99.90;;;;;;5092040;28;20388;-56
2022/10/17 06:49:50;;;;;;;21.73;15.15;;;14.00;99.90;;;;;;5092036;28;20115;-57
2022/10/17 06:52:16;;;;;;;24.77;16.48;;;13.20;99.90;;;;;;5091112;28;20044;-57
2022/10/17 06:54:43;;;;;;;25.75;15.98;;;13.20;99.90;;;;;;5091825;28;20036;-56
2022/10/17 06:57:09;;;;;;;28.42;16.25;;;13.90;99.90;;;;;;5091719;28;20480;-56
2022/10/17 06:59:35;;;;;;;23.95;16.20;;;13.30;99.90;;;;;;5091946;28;20036;-56
2022/10/17 07:02:01;;;;;;;23.13;16.02;;;13.30;99.90;;;;;;5091822;28;20040;-57
2022/10/17 07:04:27;;;;;;;24.80;15.93;;;14.10;99.90;;;;;;5089514;28;20097;-57
2022/10/17 07:06:52;;;;;;;22.58;15.23;;;13.30;99.90;;;;;;5090931;28;20036;-57
2022/10/17 07:09:19;;;;;;;23.88;15.27;;;13.90;99.90;;;;;;5091185;28;20126;-57
2022/10/17 07:11:44;;;;;;;21.83;14.70;;;14.10;99.90;;;;;;5090927;28;20516;-57
2022/10/17 07:14:10;;;;;;;23.23;16.10;;;13.70;99.90;;;;;;5056974;28;20114;-57
2022/10/17 07:16:36;;;;;;;21.27;14.88;;;14.30;99.90;;;;;;5091827;28;20484;-57
2022/10/17 07:19:02;;;;;;;24.67;14.98;;;13.70;99.90;;;;;;5091782;28;20065;-57
2022/10/17 07:21:28;;;;;;;25.83;15.48;;;14.30;99.90;;;;;;5091639;28;20115;-57
2022/10/17 07:23:54;;;;;;;22.55;15.55;;;14.40;99.90;;;;;;5091544;28;20169;-57
2022/10/17 07:26:20;;;;;;;20.88;14.40;;;13.70;99.90;;;;;;5091544;28;20491;-57
2022/10/17 07:28:49;;;;;;;25.20;16.13;;;14.10;99.90;;;;;;5091151;28;20393;-56
2022/10/17 07:31:18;;;;;;;22.95;14.35;;;14.60;99.90;;;;;;5091215;28;20055;-56
2022/10/17 07:33:45;;;;;;;21.67;14.60;;;14.10;99.90;;;;;;5091638;28;20040;-57
2022/10/17 07:36:11;;;;;;;22.08;14.48;;;14.20;99.90;;;;;;5089980;28;20043;-56
2022/10/17 07:38:38;;;;;;;22.95;15.35;;;14.70;99.90;;;;;;5090110;28;20109;-57
2022/10/17 07:41:07;;;;;;;24.90;14.48;;;14.10;99.90;;;;;;5071331;28;20428;-56
2022/10/17 07:43:33;;;;;;;22.25;14.68;;;14.70;99.90;;;;;;5071240;28;20459;-56
2022/10/17 07:46:00;;;;;;;20.88;13.88;;;13.90;99.90;;;;;;5071153;28;20299;-56
2022/10/17 07:48:26;;;;;;;22.30;14.18;;;14.90;99.90;;;;;;5071099;28;20052;-57
2022/10/17 07:50:51;;;;;;;21.52;14.05;;;14.40;99.90;;;;;;5071992;28;20043;-63
2022/10/17 07:53:18;;;;;;;21.88;14.07;;;15.00;99.90;;;;;;5086292;28;20372;-57
2022/10/17 07:55:45;;;;;;;23.13;14.25;;;14.10;99.90;;;;;;5086256;28;20357;-57
2022/10/17 07:58:11;;;;;;;23.02;14.18;;;14.10;99.90;;;;;;5087443;28;20051;-58
2022/10/17 08:00:38;;;;;;;24.05;15.18;;;15.00;99.90;;;;;;5087115;28;20040;-58
2022/10/17 08:03:04;;;;;;;21.52;13.40;;;14.70;99.90;;;;;;5087039;28;20036;-58
2022/10/17 08:05:31;;;;;;;20.13;13.93;;;14.40;99.90;;;;;;5091164;28;21555;-57
2022/10/17 08:07:56;;;;;;;22.90;15.05;;;15.10;99.90;;;;;;5091129;28;20036;-58
2022/10/17 08:10:28;;;;;;;20.35;13.60;;;14.70;99.90;;;;;;5090208;28;20510;-58
2022/10/17 08:12:55;;;;;;;23.20;14.93;;;14.80;99.90;;;;;;5091896;28;20064;-58
2022/10/17 08:15:21;;;;;;;19.70;13.63;;;15.70;99.90;;;;;;5091585;28;20136;-57
2022/10/17 08:17:47;;;;;;;19.05;14.10;;;15.00;99.90;;;;;;5090170;28;20123;-57
2022/10/17 08:20:13;;;;;;;21.33;14.32;;;15.00;99.90;;;;;;5090443;28;20106;-57
2022/10/17 08:22:38;;;;;;;21.75;14.15;;;15.80;99.90;;;;;;5089758;28;20040;-57
2022/10/17 08:25:05;;;;;;;20.45;13.13;;;15.90;99.90;;;;;;5091183;28;20047;-58
2022/10/17 08:27:32;;;;;;;19.25;12.80;;;15.00;99.90;;;;;;5090875;28;20032;-57
2022/10/17 08:29:58;;;;;;;23.92;13.88;;;15.00;99.90;;;;;;5089973;28;20548;-58
2022/10/17 08:32:26;;;;;;;18.88;12.90;;;15.40;99.90;;;;;;5089750;28;20032;-58
2022/10/17 08:34:54;;;;;;;18.58;12.30;;;15.00;99.90;;;;;;5091256;28;20047;-57
2022/10/17 08:37:21;;;;;;;19.63;12.55;;;15.70;99.90;;;;;;5091643;28;20100;-56
2022/10/17 08:39:47;;;;;;;18.38;11.93;;;16.00;99.90;;;;;;5090959;28;20531;-56
2022/10/17 08:42:43;;;;;;;19.80;12.40;;;15.80;99.90;;;;;;5091046;28;20164;-56
2022/10/17 08:45:31;;;;;;;16.48;12.38;;;16.00;99.90;;;;;;5091532;28;20130;-56
2022/10/17 08:48:03;;;;;;;16.65;12.90;;;15.40;99.90;;;;;;5090863;28;20357;-57
2022/10/17 08:50:38;;;;;;;17.77;12.57;;;16.30;99.90;;;;;;5090243;28;20153;-57
2022/10/17 08:53:09;;;;;;;18.05;12.45;;;15.90;99.90;;;;;;5090673;28;20044;-56
2022/10/17 08:55:41;;;;;;;19.75;13.85;;;16.40;99.90;;;;;;5090397;28;20036;-56
2022/10/17 08:58:28;;;;;;;20.02;12.68;;;16.50;99.90;;;;;;5090658;28;20042;-56
2022/10/17 09:01:16;;;;;;;18.83;11.68;;;16.10;99.90;;;;;;5090731;28;20052;-56
2022/10/17 09:03:53;;;;;;;16.05;11.05;;;15.60;99.90;;;;;;5089201;28;20043;-56
2022/10/17 09:06:28;;;;;;;15.75;11.55;;;16.40;99.90;;;;;;5090234;28;20085;-56
2022/10/17 09:09:16;;;;;;;17.05;11.07;;;16.60;99.90;;;;;;5090278;28;20094;-56
2022/10/17 09:11:54;;;;;;;16.08;10.52;;;16.60;99.90;;;;;;5089657;28;20052;-56
2022/10/17 09:14:35;;;;;;;17.95;11.32;;;15.90;99.90;;;;;;5090207;28;20116;-58
2022/10/17 09:17:33;;;;;;;22.00;11.63;;;16.00;99.90;;;;;;5088526;28;20039;-58
2022/10/17 09:20:02;;;;;;;16.05;10.68;;;16.30;99.90;;;;;;5087727;28;20119;-58
2022/10/17 09:22:36;;;;;;;16.33;11.32;;;16.80;99.90;;;;;;5090322;28;20063;-58
2022/10/17 09:25:08;;;;;;;15.43;10.40;;;16.80;99.90;;;;;;5089850;28;20040;-60
2022/10/17 09:27:47;;;;;;;16.25;11.50;;;17.00;99.90;;;;;;5089587;28;20040;-59
2022/10/17 09:30:34;;;;;;;15.77;10.75;;;16.90;99.90;;;;;;5088418;28;20024;-59
2022/10/17 09:33:08;;;;;;;17.80;11.80;;;16.20;99.90;;;;;;5089643;28;20119;-59
2022/10/17 09:35:34;;;;;;;14.82;10.70;;;16.90;99.90;;;;;;5089499;28;20044;-60
2022/10/17 09:37:59;;;;;;;16.90;12.25;;;16.50;99.90;;;;;;5089796;28;20483;-56
2022/10/17 09:40:33;;;;;;;16.60;11.10;;;16.00;99.90;;;;;;5088577;28;20123;-57
2022/10/17 09:43:01;;;;;;;18.85;11.50;;;16.30;99.90;;;;;;5090332;28;20036;-57
2022/10/17 09:45:32;;;;;;;15.90;11.30;;;16.80;99.90;;;;;;5089524;28;20036;-57
2022/10/17 09:48:03;;;;;;;18.77;12.05;;;16.00;99.90;;;;;;5089619;28;20040;-56
2022/10/17 09:50:31;;;;;;;18.38;12.23;;;16.80;99.90;;;;;;5088951;28;20058;-56
2022/10/17 09:53:12;;;;;;;17.38;12.25;;;16.60;99.90;;;;;;5090066;28;20054;-56
2022/10/17 09:55:42;;;;;;;18.65;12.70;;;15.90;99.90;;;;;;5089596;28;20046;-56
2022/10/17 09:58:09;;;;;;;17.35;12.60;;;16.60;99.90;;;;;;5089624;28;20032;-56
2022/10/17 10:00:39;;;;;;;18.70;13.30;;;16.20;99.90;;;;;;5088642;28;20040;-56
2022/10/17 10:03:21;;;;;;;19.08;12.55;;;15.90;99.90;;;;;;5086296;28;20105;-56
2022/10/17 10:06:01;;;;;;;19.67;13.50;;;15.50;99.90;;;;;;5085479;28;20028;-57
2022/10/17 10:08:33;;;;;;;19.35;13.63;;;16.50;99.90;;;;;;5087283;28;20036;-56
2022/10/17 10:11:03;;;;;;;18.85;13.63;;;16.70;99.90;;;;;;5087334;28;20123;-57
2022/10/17 10:13:31;;;;;;;22.10;13.93;;;16.60;99.90;;;;;;5087711;28;20554;-58
2022/10/17 10:16:16;;;;;;;22.02;14.52;;;15.40;99.90;;;;;;5089819;28;20394;-58
2022/10/17 10:18:43;;;;;;;19.45;13.98;;;15.80;99.90;;;;;;5089023;28;20490;-57
2022/10/17 10:21:13;;;;;;;21.50;14.45;;;16.30;99.90;;;;;;5089142;28;20040;-58
2022/10/17 10:23:44;;;;;;;21.38;14.30;;;16.40;99.90;;;;;;5088975;28;20036;-57
2022/10/17 10:26:24;;;;;;;20.25;14.98;;;15.30;99.90;;;;;;5089492;28;20044;-58
2022/10/17 10:28:54;;;;;;;22.63;14.23;;;16.60;99.90;;;;;;5088389;28;20051;-56
2022/10/17 10:31:29;;;;;;;20.83;13.80;;;16.20;99.90;;;;;;5089006;28;20108;-57
2022/10/17 10:33:55;;;;;;;25.70;13.85;;;15.20;99.90;;;;;;5087764;28;20049;-57
2022/10/17 10:36:22;;;;;;;22.58;14.55;;;16.30;99.90;;;;;;5087776;28;20373;-56
2022/10/17 10:38:56;;;;;;;24.10;15.00;;;15.70;99.90;;;;;;5088941;28;20039;-58
2022/10/17 10:41:26;;;;;;;23.50;14.60;;;16.40;99.90;;;;;;5086891;28;20040;-46
2022/10/17 10:43:53;;;;;;;29.48;16.08;;;15.20;99.90;;;;;;5081296;28;20369;-46
2022/10/17 10:46:26;;;;;;;27.90;17.13;;;15.60;99.90;;;;;;5084162;28;20032;-47
2022/10/17 10:48:54;;;;;;;25.45;15.50;;;15.40;99.90;;;;;;5080541;28;20051;-47
2022/10/17 10:51:42;;;;;;;22.45;14.82;;;16.80;99.90;;;;;;5091624;28;20094;-47
2022/10/17 10:54:10;;;;;;;26.33;16.73;;;16.50;99.90;;;;;;5090760;28;20051;-47
2022/10/17 10:57:06;;;;;;;26.27;15.98;;;16.70;99.90;;;;;;5092250;28;20039;-47
2022/10/17 10:59:46;;;;;;;25.15;16.20;;;16.80;99.90;;;;;;5083365;28;20115;-46
2022/10/17 11:02:29;;;;;;;25.48;15.15;;;16.50;99.90;;;;;;5092792;28;20122;-48
2022/10/17 11:05:02;;;;;;;24.52;15.48;;;15.60;99.90;;;;;;5087802;28;20044;-49
2022/10/17 11:07:33;;;;;;;29.63;16.67;;;15.30;99.90;;;;;;5091446;28;20075;-46
2022/10/17 11:10:14;;;;;;;22.60;16.00;;;15.90;99.90;;;;;;5092748;28;20046;-47
2022/10/17 11:13:10;;;;;;;22.90;15.82;;;16.10;99.90;;;;;;5087840;28;20460;-47
2022/10/17 11:15:48;;;;;;;26.48;16.27;;;16.90;99.90;;;;;;5089094;28;20048;-47
2022/10/17 11:18:21;;;;;;;25.55;16.33;;;15.60;99.90;;;;;;5091408;28;20040;-46
2022/10/17 11:20:59;;;;;;;23.95;15.98;;;15.40;99.90;;;;;;5091107;28;20491;-47
2022/10/17 11:23:46;;;;;;;25.45;15.68;;;16.00;99.90;;;;;;5092514;28;20074;-47
2022/10/17 11:26:26;;;;;;;28.15;16.25;;;16.80;99.90;;;;;;5090729;28;20044;-47
2022/10/17 11:28:53;;;;;;;27.98;16.50;;;15.50;99.90;;;;;;5091877;28;20044;-47
2022/10/17 11:31:22;;;;;;;27.15;16.35;;;15.70;99.90;;;;;;5091664;28;20132;-47
2022/10/17 11:34:02;;;;;;;26.33;15.85;;;15.70;99.90;;;;;;5092181;28;20074;-52
2022/10/17 11:36:34;;;;;;;29.75;15.93;;;15.60;99.90;;;;;;5091953;28;20040;-47
2022/10/17 11:39:23;;;;;;;28.42;16.80;;;17.10;99.90;;;;;;5086780;28;20067;-53
2022/10/17 11:42:10;;;;;;;20.23;12.15;;;15.60;99.90;;;;;;5059769;28;20082;-53
2022/10/17 11:44:40;;;;;;;20.75;13.40;;;15.50;99.90;;;;;;5092053;28;20055;-51
2022/10/17 11:47:42;;;;;;;24.85;13.98;;;17.10;99.90;;;;;;5092344;28;20032;-48
2022/10/17 11:50:36;;;;;;;20.02;12.07;;;15.50;99.90;;;;;;5090868;28;20047;-53
2022/10/17 11:53:18;;;;;;;20.23;12.90;;;17.10;99.90;;;;;;5091140;28;20350;-49
2022/10/17 11:55:45;;;;;;;18.10;12.32;;;16.20;99.90;;;;;;5091696;28;20411;-48
2022/10/17 11:58:26;;;;;;;19.40;12.60;;;15.70;99.90;;;;;;5090104;28;20040;-48
2022/10/17 12:01:14;;;;;;;20.33;11.93;;;16.00;99.90;;;;;;5091864;28;20127;-50
2022/10/17 12:03:51;;;;;;;19.52;12.40;;;15.80;99.90;;;;;;5091695;28;20044;-48
2022/10/17 12:07:02;;;;;;;19.42;11.35;;;17.20;99.90;;;;;;5091735;28;20040;-54
2022/10/17 12:09:44;;;;;;;19.13;11.00;;;16.70;99.90;;;;;;5066645;28;20120;-55
2022/10/17 12:12:26;;;;;;;18.10;10.10;;;15.80;99.90;;;;;;5091012;28;20594;-56
2022/10/17 12:14:53;;;;;;;14.52;9.02;;;15.30;99.90;;;;;;5091493;28;20161;-47
2022/10/17 12:17:24;;;;;;;14.38;8.35;;;16.90;99.90;;;;;;5091577;28;20159;-46
2022/10/17 12:19:49;;;;;;;12.27;7.73;;;15.50;99.90;;;;;;5091218;28;20032;-50
2022/10/17 12:22:24;;;;;;;14.60;7.85;;;16.40;99.90;;;;;;5091196;28;20043;-48
2022/10/17 12:25:03;;;;;;;12.45;8.40;;;15.50;99.90;;;;;;5091296;28;20407;-50
2022/10/17 12:27:36;;;;;;;14.27;8.68;;;16.00;99.90;;;;;;5091299;28;20043;-51
2022/10/17 12:30:21;;;;;;;14.05;8.40;;;17.00;99.90;;;;;;5091233;28;20560;-48
2022/10/17 12:32:58;;;;;;;12.77;7.63;;;16.90;99.90;;;;;;5090893;28;20070;-56
2022/10/17 12:35:25;;;;;;;10.75;7.72;;;16.70;99.90;;;;;;5095367;28;20036;-50
2022/10/17 12:37:51;;;;;;;13.23;7.57;;;16.60;99.90;;;;;;5095256;28;20032;-47
2022/10/17 12:40:43;;;;;;;13.95;9.45;;;16.50;99.90;;;;;;5095117;28;20530;-48
2022/10/17 12:43:15;;;;;;;11.88;8.23;;;16.80;99.90;;;;;;5093275;28;20047;-46
2022/10/17 12:45:56;;;;;;;14.38;9.10;;;16.60;99.90;;;;;;5094137;28;20055;-47
2022/10/17 12:48:40;;;;;;;12.57;8.60;;;16.80;99.90;;;;;;5092730;28;20048;-46
2022/10/17 12:51:11;;;;;;;13.82;9.25;;;16.20;99.90;;;;;;5092679;28;20048;-47
2022/10/17 12:53:55;;;;;;;14.27;9.13;;;16.80;99.90;;;;;;5093951;28;20082;-47